Time;durP1;ratioP1;P1;durP2;ratioP2;P2;SDS_P1;SDS_P2;PMS_P1;PMS_P2;Temp;Humidity;BMP_temperature;BMP_pressure;BME280_temperature;BME280_humidity;BME280_pressure;Samples;Min_cycle;Max_cycle;Signal;HPM_P1;HPM_P2
2022/08/24 10:04:25;;;;;;;;;;;28.40;50.20;;;;;;5182434;22;19951;-72
2022/08/24 10:07:00;;;;;;;;;;;28.70;48.30;;;;;;5014648;28;19940;-72
2022/08/24 10:09:38;;;;;;;;;;;28.80;49.70;;;;;;5013668;28;20357;-73
2022/08/24 10:12:05;;;;;;;;;;;29.20;48.50;;;;;;5013878;28;19914;-73
2022/08/24 10:15:06;;;;;;;;;;;29.20;48.10;;;;;;5012621;28;19919;-72
2022/08/24 10:17:34;;;;;;;;;;;28.90;49.30;;;;;;4952191;29;19914;-73
2022/08/24 10:20:11;;;;;;;;;;;28.60;49.30;;;;;;5002048;28;19921;-73
2022/08/24 10:22:53;;;;;;;;;;;28.50;49.10;;;;;;5012845;28;19913;-73
2022/08/24 10:25:22;;;;;;;;;;;28.80;48.60;;;;;;5013638;28;19922;-72
2022/08/24 10:28:06;;;;;;;;;;;29.50;48.10;;;;;;5013818;28;19913;-72
2022/08/24 10:30:44;;;;;;;;;;;29.90;48.00;;;;;;5012844;28;19913;-72
2022/08/24 10:33:40;;;;;;;;;;;29.90;47.20;;;;;;5013728;28;20317;-72
2022/08/24 10:36:17;;;;;;;;;;;30.00;47.30;;;;;;5000436;28;19913;-72
2022/08/24 10:41:42;;;;;;;;;;;30.50;46.40;;;;;;5012167;28;20366;-72
2022/08/24 10:44:14;;;;;;;;;;;30.50;46.00;;;;;;5013859;28;19909;-71
2022/08/24 10:46:48;;;;;;;;;;;30.20;45.70;;;;;;5012569;28;20362;-71
2022/08/24 10:49:33;;;;;;;;;;;29.80;47.40;;;;;;5013102;28;19928;-72
2022/08/24 10:52:05;;;;;;;;;;;30.10;46.70;;;;;;5013131;28;19920;-72
2022/08/24 10:54:32;;;;;;;;;;;30.20;47.30;;;;;;5012371;28;20369;-73
2022/08/24 10:57:05;;;;;;;;;;;30.50;46.40;;;;;;5012959;28;19910;-72
2022/08/24 10:59:48;;;;;;;;;;;30.00;46.50;;;;;;5012261;28;19921;-72
2022/08/24 11:02:34;;;;;;;;;;;30.10;45.60;;;;;;5013015;28;20369;-71
2022/08/24 11:05:04;;;;;;;;;;;29.70;46.40;;;;;;4996210;28;20326;-72
2022/08/24 11:07:30;;;;;;;;;;;29.90;46.10;;;;;;5014414;28;19914;-71
2022/08/24 11:09:59;;;;;;;;;;;30.00;45.80;;;;;;5013888;28;19913;-72
2022/08/24 11:12:41;;;;;;;;;;;29.90;45.20;;;;;;5012737;28;19921;-73
2022/08/24 11:15:16;;;;;;;;;;;30.00;45.80;;;;;;5012956;28;19913;-72
2022/08/24 11:17:56;;;;;;;;;;;30.00;45.40;;;;;;5012018;28;19914;-72
2022/08/24 11:20:39;;;;;;;;;;;29.90;45.50;;;;;;4994906;28;19921;-72
2022/08/24 11:23:20;;;;;;;;;;;30.20;45.20;;;;;;5012813;28;19920;-72
2022/08/24 11:26:01;;;;;;;;;;;30.20;45.30;;;;;;5011916;28;20281;-71
2022/08/24 11:28:32;;;;;;;;;;;30.40;44.70;;;;;;5011424;28;19920;-72
2022/08/24 11:30:58;;;;;;;;;;;30.30;45.00;;;;;;5013260;28;19920;-72
2022/08/24 11:33:30;;;;;;;;;;;30.40;44.80;;;;;;5011432;28;20384;-74
2022/08/24 11:35:56;;;;;;;;;;;30.70;44.90;;;;;;5012407;28;19920;-72
2022/08/24 11:38:22;;;;;;;;;;;30.90;44.30;;;;;;5012442;28;19913;-71
2022/08/24 11:41:00;;;;;;;;;;;30.80;44.80;;;;;;5011713;28;20420;-71
2022/08/24 11:43:38;;;;;;;;;;;30.80;44.30;;;;;;5011774;28;20262;-71
2022/08/24 11:46:17;;;;;;;;;;;31.20;43.50;;;;;;5011852;28;19913;-72
2022/08/24 11:49:06;;;;;;;;;;;31.30;43.20;;;;;;5011826;28;19914;-71
2022/08/24 11:51:42;;;;;;;;;;;31.10;43.30;;;;;;5012040;28;19914;-71
2022/08/24 11:54:20;;;;;;;;;;;31.20;43.10;;;;;;5015528;28;19921;-71
2022/08/24 11:56:57;;;;;;;;;;;31.10;43.50;;;;;;5015594;28;19940;-71
2022/08/24 11:59:38;;;;;;;;;;;31.10;43.00;;;;;;5016159;28;19929;-71
2022/08/24 12:02:09;;;;;;;;;;;30.80;42.80;;;;;;5016421;28;19926;-71
2022/08/24 12:04:44;;;;;;;;;;;31.00;43.10;;;;;;5014979;28;19921;-71
2022/08/24 12:07:17;;;;;;;;;;;31.30;42.70;;;;;;5016112;28;19913;-71
2022/08/24 12:09:50;;;;;;;;;;;31.60;43.00;;;;;;4997826;28;19913;-72
2022/08/24 12:12:25;;;;;;;;;;;31.50;42.20;;;;;;5016232;28;19913;-72
2022/08/24 12:14:59;;;;;;;;;;;31.70;41.60;;;;;;5015741;28;19917;-72
2022/08/24 12:17:45;;;;;;;;;;;31.90;41.50;;;;;;5016758;28;19913;-73
2022/08/24 12:20:19;;;;;;;;;;;32.10;41.10;;;;;;5016013;28;19925;-72
2022/08/24 12:22:46;;;;;;;;;;;31.70;41.00;;;;;;5015355;28;20367;-72
2022/08/24 12:27:58;;;;;;;;;;;31.40;41.20;;;;;;5016401;28;19914;-72
2022/08/24 12:30:25;;;;;;;;;;;31.40;41.00;;;;;;5015917;28;20262;-71
2022/08/24 12:32:59;;;;;;;;;;;31.10;41.00;;;;;;5015296;28;20365;-71
2022/08/24 12:35:40;;;;;;;;;;;30.90;41.50;;;;;;5015641;28;19914;-71
2022/08/24 12:38:10;;;;;;;;;;;31.00;41.30;;;;;;5015447;28;19913;-72
2022/08/24 12:40:41;;;;;;;;;;;31.00;40.90;;;;;;5014943;28;19921;-72
2022/08/24 12:43:11;;;;;;;;;;;31.20;40.90;;;;;;5015227;28;19914;-72
2022/08/24 12:45:37;;;;;;;;;;;31.40;41.20;;;;;;4997514;28;19917;-72
2022/08/24 12:48:19;;;;;;;;;;;31.70;40.70;;;;;;5015270;28;20366;-72
2022/08/24 12:51:01;;;;;;;;;;;31.60;40.50;;;;;;5014951;28;19937;-72
2022/08/24 12:53:30;;;;;;;;;;;31.70;40.20;;;;;;5015273;28;19913;-72
2022/08/24 12:56:11;;;;;;;;;;;31.70;40.50;;;;;;5014985;28;20012;-72
2022/08/24 12:58:42;;;;;;;;;;;31.70;40.10;;;;;;5014704;28;20009;-72
2022/08/24 13:01:10;;;;;;;;;;;31.40;40.00;;;;;;5014694;28;19922;-72
2022/08/24 13:03:38;;;;;;;;;;;31.40;39.80;;;;;;5013069;28;20366;-72
2022/08/24 13:06:06;;;;;;;;;;;31.50;40.10;;;;;;5015404;28;19913;-72
2022/08/24 13:08:37;;;;;;;;;;;31.60;40.00;;;;;;5014628;28;19917;-72
2022/08/24 13:11:09;;;;;;;;;;;31.50;39.60;;;;;;5014352;28;19921;-72
2022/08/24 13:13:58;;;;;;;;;;;31.50;38.90;;;;;;5014578;28;19913;-72
2022/08/24 13:16:43;;;;;;;;;;;31.50;39.30;;;;;;4991332;28;19913;-72
2022/08/24 13:19:21;;;;;;;;;;;31.40;40.20;;;;;;5014826;28;19929;-72
2022/08/24 13:21:57;;;;;;;;;;;31.70;38.90;;;;;;5014023;28;19913;-72
2022/08/24 13:24:26;;;;;;;;;;;31.80;39.40;;;;;;5015101;28;19914;-72
2022/08/24 13:27:15;;;;;;;;;;;31.90;39.00;;;;;;5014077;28;19913;-72
2022/08/24 13:29:43;;;;;;;;;;;31.50;38.90;;;;;;4986507;28;19925;-72
2022/08/24 13:32:29;;;;;;;;;;;31.40;39.40;;;;;;5014237;28;19918;-72
2022/08/24 13:34:56;;;;;;;;;;;31.50;39.70;;;;;;5013938;28;19929;-72
2022/08/24 13:37:23;;;;;;;;;;;31.70;39.00;;;;;;5014509;28;19920;-71
2022/08/24 13:40:08;;;;;;;;;;;31.70;39.20;;;;;;5013104;28;19944;-71
2022/08/24 13:42:34;;;;;;;;;;;31.70;39.70;;;;;;5014132;28;19914;-72
2022/08/24 13:45:10;;;;;;;;;;;31.70;39.30;;;;;;5014789;28;19914;-71
2022/08/24 13:47:55;;;;;;;;;;;31.70;39.30;;;;;;5013668;28;19913;-72
2022/08/24 13:50:27;;;;;;;;;;;31.70;39.10;;;;;;5014130;28;19913;-71
2022/08/24 13:53:08;;;;;;;;;;;31.40;39.50;;;;;;5013527;28;19924;-71
2022/08/24 13:55:33;;;;;;;;;;;31.50;39.10;;;;;;5013817;28;19918;-72
2022/08/24 13:58:05;;;;;;;;;;;31.40;39.00;;;;;;5014552;28;19920;-71
2022/08/24 14:00:40;;;;;;;;;;;31.50;38.90;;;;;;5013971;28;19925;-71
2022/08/24 14:03:20;;;;;;;;;;;31.30;39.20;;;;;;5013855;28;19933;-71
2022/08/24 14:05:46;;;;;;;;;;;31.50;38.70;;;;;;5013388;28;19914;-72
2022/08/24 14:08:12;;;;;;;;;;;31.50;38.40;;;;;;5014091;28;19968;-71
2022/08/24 14:10:38;;;;;;;;;;;31.90;38.80;;;;;;5013654;28;19913;-71
2022/08/24 14:13:14;;;;;;;;;;;32.10;39.30;;;;;;5013827;28;19913;-72
2022/08/24 14:18:48;;;;;;;;;;;31.70;38.70;;;;;;5013173;28;19913;-72
2022/08/24 14:21:18;;;;;;;;;;;31.50;38.20;;;;;;5013771;28;19928;-72
2022/08/24 14:23:51;;;;;;;;;;;31.70;38.10;;;;;;5013222;28;19913;-72
2022/08/24 14:26:49;;;;;;;;;;;31.60;38.40;;;;;;5013560;28;19914;-72
2022/08/24 14:29:18;;;;;;;;;;;31.50;38.60;;;;;;5013548;28;19920;-72
2022/08/24 14:31:59;;;;;;;;;;;31.60;38.70;;;;;;5012939;28;19921;-72
2022/08/24 14:34:44;;;;;;;;;;;31.90;40.10;;;;;;5013529;28;19914;-72
2022/08/24 14:37:13;;;;;;;;;;;31.90;38.30;;;;;;5013917;28;19913;-71
2022/08/24 14:40:09;;;;;;;;;;;31.80;38.50;;;;;;5012716;28;19928;-71
2022/08/24 14:42:55;;;;;;;;;;;31.90;38.30;;;;;;5013006;28;19932;-75
2022/08/24 14:45:40;;;;;;;;;;;31.70;37.80;;;;;;5013950;28;20386;-71
2022/08/24 14:48:18;;;;;;;;;;;31.80;38.20;;;;;;5013193;28;19921;-72
2022/08/24 14:50:53;;;;;;;;;;;31.80;38.60;;;;;;5012552;28;19914;-72
2022/08/24 14:53:37;;;;;;;;;;;31.90;38.30;;;;;;5012402;28;19914;-72
2022/08/24 14:56:11;;;;;;;;;;;31.80;38.70;;;;;;5013214;28;19913;-72
2022/08/24 14:58:49;;;;;;;;;;;31.70;38.90;;;;;;5012902;28;19914;-73
2022/08/24 15:01:18;;;;;;;;;;;31.80;38.60;;;;;;5012562;28;19928;-72
2022/08/24 15:03:56;;;;;;;;;;;31.90;38.60;;;;;;5012556;28;19932;-72
2022/08/24 15:06:29;;;;;;;;;;;31.70;38.40;;;;;;5012369;28;19913;-72
2022/08/24 15:09:09;;;;;;;;;;;31.70;38.80;;;;;;5012485;28;20274;-72
2022/08/24 15:11:38;;;;;;;;;;;31.80;38.80;;;;;;5011933;28;19913;-72
2022/08/24 15:14:06;;;;;;;;;;;31.70;38.90;;;;;;5012699;28;20393;-72
2022/08/24 15:16:41;;;;;;;;;;;31.60;39.20;;;;;;5012835;28;19918;-72
2022/08/24 15:19:15;;;;;;;;;;;31.70;39.00;;;;;;5012685;28;19944;-71
2022/08/24 15:22:04;;;;;;;;;;;31.70;39.00;;;;;;5012290;28;20334;-72
2022/08/24 15:24:45;;;;;;;;;;;31.40;38.70;;;;;;4984386;28;19913;-71
2022/08/24 15:27:37;;;;;;;;;;;31.30;39.30;;;;;;5012449;28;20298;-71
2022/08/24 15:30:06;;;;;;;;;;;31.50;38.90;;;;;;5012395;28;19914;-71
2022/08/24 15:32:43;;;;;;;;;;;31.80;38.80;;;;;;4994986;28;19921;-71
2022/08/24 15:35:22;;;;;;;;;;;31.90;38.50;;;;;;5012596;28;19914;-72
2022/08/24 15:37:48;;;;;;;;;;;31.90;38.80;;;;;;5011814;28;19920;-72
2022/08/24 15:40:23;;;;;;;;;;;31.80;39.10;;;;;;4994260;28;19917;-72
2022/08/24 15:42:50;;;;;;;;;;;31.50;38.50;;;;;;5011238;28;19913;-72
2022/08/24 15:45:17;;;;;;;;;;;31.40;38.60;;;;;;5012098;28;19910;-71
2022/08/24 15:47:44;;;;;;;;;;;31.30;38.50;;;;;;5011866;28;19921;-71
2022/08/24 15:50:19;;;;;;;;;;;31.20;38.80;;;;;;5011674;28;19920;-71
2022/08/24 15:52:58;;;;;;;;;;;31.30;38.90;;;;;;5010853;28;20277;-70
2022/08/24 15:55:30;;;;;;;;;;;31.40;38.80;;;;;;5012016;28;19913;-70
2022/08/24 15:57:58;;;;;;;;;;;31.30;38.60;;;;;;5011821;28;19921;-71
2022/08/24 16:03:19;;;;;;;;;;;31.30;38.30;;;;;;5012170;28;19925;-72
2022/08/24 16:05:45;;;;;;;;;;;31.20;38.70;;;;;;5011366;28;19920;-71
2022/08/24 16:08:12;;;;;;;;;;;31.20;38.70;;;;;;5012380;28;19958;-71
2022/08/24 16:10:41;;;;;;;;;;;31.20;38.50;;;;;;5012031;28;19913;-71
2022/08/24 16:13:13;;;;;;;;;;;31.20;38.30;;;;;;5012157;28;19910;-72
2022/08/24 16:15:47;;;;;;;;;;;31.30;38.20;;;;;;5011522;28;19929;-71
2022/08/24 16:18:14;;;;;;;;;;;31.30;38.40;;;;;;5011748;28;19913;-71
2022/08/24 16:20:40;;;;;;;;;;;31.20;38.10;;;;;;5011028;28;19918;-72
2022/08/24 16:23:09;;;;;;;;;;;31.10;37.90;;;;;;5011277;28;19929;-71
2022/08/24 16:25:37;;;;;;;;;;;31.30;37.80;;;;;;5012230;28;19914;-71
2022/08/24 16:28:06;;;;;;;;;;;31.30;37.90;;;;;;5011160;28;19918;-71
2022/08/24 16:30:41;;;;;;;;;;;31.30;37.80;;;;;;5011907;28;19918;-72
2022/08/24 16:33:08;;;;;;;;;;;31.10;37.60;;;;;;5011719;28;19917;-72
2022/08/24 16:35:34;;;;;;;;;;;31.10;38.20;;;;;;5011851;28;19921;-71
2022/08/24 16:38:00;;;;;;;;;;;31.00;38.50;;;;;;5011335;28;20366;-71
2022/08/24 16:40:27;;;;;;;;;;;31.00;38.80;;;;;;5015014;28;19921;-71
2022/08/24 16:42:54;;;;;;;;;;;31.10;38.60;;;;;;5015080;28;20281;-72
2022/08/24 16:45:21;;;;;;;;;;;30.90;38.60;;;;;;5015799;28;19945;-71
2022/08/24 16:47:47;;;;;;;;;;;30.80;38.80;;;;;;5016067;28;19956;-71
2022/08/24 16:50:17;;;;;;;;;;;30.80;38.70;;;;;;5015744;28;19914;-71
2022/08/24 16:52:44;;;;;;;;;;;30.80;38.70;;;;;;5014723;28;19914;-75
2022/08/24 16:55:10;;;;;;;;;;;30.80;38.70;;;;;;5015594;28;19914;-72
2022/08/24 16:57:37;;;;;;;;;;;30.80;38.60;;;;;;5015211;28;20366;-71
2022/08/24 17:00:08;;;;;;;;;;;30.80;38.70;;;;;;5014429;28;20297;-71
2022/08/24 17:02:34;;;;;;;;;;;30.80;38.80;;;;;;5014325;28;20350;-72
2022/08/24 17:05:00;;;;;;;;;;;30.60;38.70;;;;;;5014419;28;19971;-72
2022/08/24 17:07:27;;;;;;;;;;;30.60;38.90;;;;;;5015278;28;19913;-72
2022/08/24 17:09:54;;;;;;;;;;;30.60;39.10;;;;;;5014595;28;19921;-71
2022/08/24 17:12:20;;;;;;;;;;;30.60;39.10;;;;;;4997401;28;19914;-71
2022/08/24 17:14:47;;;;;;;;;;;30.50;39.00;;;;;;5014188;28;19913;-71
2022/08/24 17:17:15;;;;;;;;;;;30.40;39.20;;;;;;5014667;28;19914;-71
2022/08/24 17:19:42;;;;;;;;;;;30.40;39.10;;;;;;5013677;28;19913;-71
2022/08/24 17:22:08;;;;;;;;;;;30.30;39.20;;;;;;5013772;28;20266;-71
2022/08/24 17:24:34;;;;;;;;;;;30.30;39.20;;;;;;5014609;28;19910;-71
2022/08/24 17:27:01;;;;;;;;;;;30.30;39.30;;;;;;5014352;28;19993;-71
2022/08/24 17:29:27;;;;;;;;;;;30.20;39.10;;;;;;5014452;28;19920;-71
2022/08/24 17:31:53;;;;;;;;;;;30.10;39.00;;;;;;5014210;28;19918;-71
2022/08/24 17:34:21;;;;;;;;;;;30.10;39.00;;;;;;5014453;28;19913;-71
2022/08/24 17:36:51;;;;;;;;;;;30.00;39.20;;;;;;5013823;28;19962;-72
2022/08/24 17:39:18;;;;;;;;;;;30.00;38.90;;;;;;5014359;28;19920;-71
2022/08/24 17:41:44;;;;;;;;;;;30.00;38.90;;;;;;5014414;28;19924;-71
2022/08/24 17:44:13;;;;;;;;;;;29.90;38.80;;;;;;5013846;28;20273;-71
2022/08/24 17:46:39;;;;;;;;;;;29.90;38.80;;;;;;5014122;28;20274;-71
2022/08/24 17:49:06;;;;;;;;;;;29.80;39.00;;;;;;5013518;28;19913;-71
2022/08/24 17:51:32;;;;;;;;;;;29.70;39.10;;;;;;5013839;28;19917;-71
2022/08/24 17:53:58;;;;;;;;;;;29.70;39.30;;;;;;5013322;28;19913;-71
2022/08/24 17:56:26;;;;;;;;;;;29.60;39.10;;;;;;5014061;28;19913;-71
2022/08/24 18:01:37;;;;;;;;;;;29.40;39.20;;;;;;5013833;28;19933;-71
2022/08/24 18:04:03;;;;;;;;;;;29.40;39.30;;;;;;5013618;28;19948;-71
2022/08/24 18:06:29;;;;;;;;;;;29.30;39.30;;;;;;4996197;28;19914;-71
2022/08/24 18:08:58;;;;;;;;;;;29.20;39.30;;;;;;5013365;28;19913;-71
2022/08/24 18:11:24;;;;;;;;;;;29.10;39.30;;;;;;5013844;28;19913;-71
2022/08/24 18:13:50;;;;;;;;;;;29.00;39.60;;;;;;5013048;28;20358;-71
2022/08/24 18:16:18;;;;;;;;;;;28.90;39.70;;;;;;5014062;28;19920;-71
2022/08/24 18:18:44;;;;;;;;;;;28.80;39.70;;;;;;5013524;28;19918;-71
2022/08/24 18:21:10;;;;;;;;;;;28.70;39.90;;;;;;5013097;28;19922;-72
2022/08/24 18:23:36;;;;;;;;;;;28.60;40.00;;;;;;5013720;28;19968;-71
2022/08/24 18:26:02;;;;;;;;;;;28.50;40.20;;;;;;5013175;28;19967;-72
2022/08/24 18:28:28;;;;;;;;;;;28.40;40.40;;;;;;5014088;28;19914;-72
2022/08/24 18:30:54;;;;;;;;;;;28.30;40.50;;;;;;5013172;28;19909;-72
2022/08/24 18:33:20;;;;;;;;;;;28.10;40.90;;;;;;5012270;28;19925;-72
2022/08/24 18:35:47;;;;;;;;;;;28.00;41.10;;;;;;5013568;28;20362;-71
2022/08/24 18:38:13;;;;;;;;;;;27.80;41.30;;;;;;5012208;28;19914;-71
2022/08/24 18:40:40;;;;;;;;;;;27.70;42.20;;;;;;5013510;28;20369;-71
2022/08/24 18:43:07;;;;;;;;;;;27.50;42.60;;;;;;5013048;28;19909;-72
2022/08/24 18:45:34;;;;;;;;;;;27.20;42.90;;;;;;4996309;28;19922;-72
2022/08/24 18:48:01;;;;;;;;;;;27.00;43.40;;;;;;5013546;28;19929;-71
2022/08/24 18:50:27;;;;;;;;;;;26.70;43.50;;;;;;5013737;28;19917;-71
2022/08/24 18:52:55;;;;;;;;;;;26.50;43.90;;;;;;5013105;28;20279;-71
2022/08/24 18:55:21;;;;;;;;;;;26.30;44.20;;;;;;5013513;28;19929;-71
2022/08/24 18:57:47;;;;;;;;;;;26.20;44.60;;;;;;5012882;28;20273;-71
2022/08/24 19:00:14;;;;;;;;;;;26.00;44.70;;;;;;5012270;28;19914;-71
2022/08/24 19:02:40;;;;;;;;;;;25.90;45.10;;;;;;5011328;28;20274;-71
2022/08/24 19:05:08;;;;;;;;;;;25.70;45.20;;;;;;5012274;28;20282;-72
2022/08/24 19:07:36;;;;;;;;;;;25.60;45.80;;;;;;5013135;28;20245;-71
2022/08/24 19:10:03;;;;;;;;;;;25.40;45.90;;;;;;5012452;28;19928;-72
2022/08/24 19:12:30;;;;;;;;;;;25.30;46.20;;;;;;5013009;28;19914;-71
2022/08/24 19:14:58;;;;;;;;;;;25.10;46.60;;;;;;5012427;28;19913;-71
2022/08/24 19:17:25;;;;;;;;;;;25.00;46.90;;;;;;5010819;28;19921;-71
2022/08/24 19:19:52;;;;;;;;;;;24.80;46.70;;;;;;5012656;28;19921;-71
2022/08/24 19:22:18;;;;;;;;;;;24.60;47.00;;;;;;4995127;28;19918;-71
2022/08/24 19:24:45;;;;;;;;;;;24.40;47.30;;;;;;5012789;28;19921;-70
2022/08/24 19:27:11;;;;;;;;;;;24.30;47.50;;;;;;5011670;28;19913;-70
2022/08/24 19:29:37;;;;;;;;;;;24.20;47.80;;;;;;5013055;28;19913;-70
2022/08/24 19:32:03;;;;;;;;;;;24.10;48.50;;;;;;5011918;28;19917;-70
2022/08/24 19:34:29;;;;;;;;;;;24.10;48.30;;;;;;5012730;28;19928;-70
2022/08/24 19:36:55;;;;;;;;;;;24.00;48.90;;;;;;5011897;28;20346;-71
2022/08/24 19:39:21;;;;;;;;;;;24.00;48.90;;;;;;5011703;28;20346;-70
2022/08/24 19:41:48;;;;;;;;;;;23.90;48.90;;;;;;5012337;28;19921;-70
2022/08/24 19:47:00;;;;;;;;;;;23.70;49.00;;;;;;5011985;28;19914;-70
2022/08/24 19:49:26;;;;;;;;;;;23.50;49.20;;;;;;5012294;28;20384;-70
2022/08/24 19:51:53;;;;;;;;;;;23.30;49.50;;;;;;5012433;28;19918;-70
2022/08/24 19:54:19;;;;;;;;;;;23.10;49.80;;;;;;5012005;28;19913;-70
2022/08/24 19:56:45;;;;;;;;;;;22.90;50.20;;;;;;5012112;28;20298;-70
2022/08/24 19:59:25;;;;;;;;;;;22.80;50.60;;;;;;5011535;28;19909;-71
2022/08/24 20:01:51;;;;;;;;;;;22.70;50.90;;;;;;5012236;28;19926;-71
2022/08/24 20:04:17;;;;;;;;;;;22.50;51.30;;;;;;5011964;28;20016;-71
2022/08/24 20:06:43;;;;;;;;;;;22.40;51.40;;;;;;5012400;28;19936;-71
2022/08/24 20:09:09;;;;;;;;;;;22.40;51.80;;;;;;5011627;28;19913;-71
2022/08/24 20:11:35;;;;;;;;;;;22.40;52.10;;;;;;5012268;28;19920;-70
2022/08/24 20:14:01;;;;;;;;;;;22.40;52.40;;;;;;5012967;28;20382;-71
2022/08/24 20:16:30;;;;;;;;;;;22.40;52.40;;;;;;5015660;28;19921;-71
2022/08/24 20:18:57;;;;;;;;;;;22.40;52.30;;;;;;5015257;28;19914;-74
2022/08/24 20:21:23;;;;;;;;;;;22.40;52.30;;;;;;5015455;28;19921;-71
2022/08/24 20:23:49;;;;;;;;;;;22.40;52.40;;;;;;5015844;28;19914;-71
2022/08/24 20:26:15;;;;;;;;;;;22.30;52.50;;;;;;5014065;28;20241;-71
2022/08/24 20:28:45;;;;;;;;;;;22.10;52.40;;;;;;5015915;28;19949;-71
2022/08/24 20:31:12;;;;;;;;;;;22.10;52.60;;;;;;5015254;28;19914;-71
2022/08/24 20:33:38;;;;;;;;;;;22.10;52.70;;;;;;5015916;28;19924;-71
2022/08/24 20:36:04;;;;;;;;;;;22.10;52.60;;;;;;5015148;28;19916;-71
2022/08/24 20:38:31;;;;;;;;;;;22.20;52.60;;;;;;5015676;28;20267;-71
2022/08/24 20:40:57;;;;;;;;;;;22.30;52.50;;;;;;5014905;28;20362;-71
2022/08/24 20:43:24;;;;;;;;;;;22.30;53.30;;;;;;5015356;28;20270;-70
2022/08/24 20:45:50;;;;;;;;;;;22.20;53.80;;;;;;4998153;28;19914;-70
2022/08/24 20:48:20;;;;;;;;;;;22.20;54.10;;;;;;5014826;28;19909;-71
2022/08/24 20:50:46;;;;;;;;;;;22.20;54.30;;;;;;5013980;28;19921;-71
2022/08/24 20:53:12;;;;;;;;;;;22.20;54.20;;;;;;4996768;28;20361;-70
2022/08/24 20:55:39;;;;;;;;;;;22.30;53.90;;;;;;5015150;28;19914;-69
2022/08/24 20:58:05;;;;;;;;;;;22.30;54.00;;;;;;5014825;28;19910;-70
2022/08/24 21:00:31;;;;;;;;;;;22.30;53.80;;;;;;5015287;28;19914;-70
2022/08/24 21:02:57;;;;;;;;;;;22.30;54.20;;;;;;5015535;28;19942;-71
2022/08/24 21:05:23;;;;;;;;;;;22.20;54.40;;;;;;5013366;28;19921;-70
2022/08/24 21:07:49;;;;;;;;;;;22.10;54.70;;;;;;5015294;28;19913;-70
2022/08/24 21:10:16;;;;;;;;;;;22.10;54.90;;;;;;5013753;28;19913;-70
2022/08/24 21:12:42;;;;;;;;;;;22.00;55.00;;;;;;5014638;28;20237;-70
2022/08/24 21:15:08;;;;;;;;;;;21.90;55.20;;;;;;5014583;28;19914;-70
2022/08/24 21:17:34;;;;;;;;;;;21.90;55.80;;;;;;5014027;28;19940;-70
2022/08/24 21:20:01;;;;;;;;;;;21.70;55.90;;;;;;5014187;28;20374;-71
2022/08/24 21:22:27;;;;;;;;;;;21.70;56.60;;;;;;5014717;28;19921;-71
2022/08/24 21:24:53;;;;;;;;;;;21.60;56.20;;;;;;5014447;28;19940;-71
2022/08/24 21:27:19;;;;;;;;;;;21.60;55.90;;;;;;5014304;28;19910;-71
2022/08/24 21:29:45;;;;;;;;;;;21.60;55.80;;;;;;5014655;28;19914;-71
2022/08/24 21:34:55;;;;;;;;;;;21.70;55.70;;;;;;5014460;28;19914;-71
2022/08/24 21:37:22;;;;;;;;;;;21.80;56.00;;;;;;5013772;28;20305;-71
2022/08/24 21:39:48;;;;;;;;;;;21.70;57.00;;;;;;5014297;28;19913;-71
2022/08/24 21:42:15;;;;;;;;;;;21.70;57.30;;;;;;5013693;28;20019;-71
2022/08/24 21:44:41;;;;;;;;;;;21.60;57.80;;;;;;5014253;28;19921;-71
2022/08/24 21:47:08;;;;;;;;;;;21.60;57.60;;;;;;5013827;28;19910;-71
2022/08/24 21:49:34;;;;;;;;;;;21.60;57.90;;;;;;4996116;28;19914;-71
2022/08/24 21:52:00;;;;;;;;;;;21.40;58.50;;;;;;5014415;28;19913;-71
2022/08/24 21:54:26;;;;;;;;;;;21.40;58.40;;;;;;5013798;28;19913;-71
2022/08/24 21:56:52;;;;;;;;;;;21.40;58.40;;;;;;5014011;28;20378;-71
2022/08/24 21:59:18;;;;;;;;;;;21.30;58.60;;;;;;5013653;28;20255;-71
2022/08/24 22:01:44;;;;;;;;;;;21.30;58.90;;;;;;5013905;28;19932;-70
2022/08/24 22:04:10;;;;;;;;;;;21.20;59.20;;;;;;5013375;28;19957;-70
2022/08/24 22:06:36;;;;;;;;;;;21.10;59.50;;;;;;5014284;28;19925;-70
2022/08/24 22:09:03;;;;;;;;;;;21.10;60.10;;;;;;5013260;28;19917;-75
2022/08/24 22:11:29;;;;;;;;;;;21.00;60.40;;;;;;5012815;28;19920;-71
2022/08/24 22:13:56;;;;;;;;;;;21.00;61.10;;;;;;5014036;28;19910;-70
2022/08/24 22:16:22;;;;;;;;;;;20.90;61.70;;;;;;5013073;28;19914;-71
2022/08/24 22:18:48;;;;;;;;;;;20.80;60.90;;;;;;5013760;28;20263;-71
2022/08/24 22:21:16;;;;;;;;;;;20.80;61.00;;;;;;5013198;28;19933;-71
2022/08/24 22:23:43;;;;;;;;;;;20.70;61.10;;;;;;4996007;28;19922;-71
2022/08/24 22:26:09;;;;;;;;;;;20.70;61.30;;;;;;5012797;28;20358;-71
2022/08/24 22:28:36;;;;;;;;;;;20.60;61.80;;;;;;5012748;28;19913;-70
2022/08/24 22:31:02;;;;;;;;;;;20.60;62.00;;;;;;5013214;28;20036;-71
2022/08/24 22:33:28;;;;;;;;;;;20.60;62.70;;;;;;5013557;28;19918;-71
2022/08/24 22:35:55;;;;;;;;;;;20.60;62.50;;;;;;5012761;28;19921;-71
2022/08/24 22:38:21;;;;;;;;;;;20.50;62.70;;;;;;5012303;28;19913;-69
2022/08/24 22:40:53;;;;;;;;;;;20.50;63.10;;;;;;5013272;28;19917;-71
2022/08/24 22:43:19;;;;;;;;;;;20.40;63.60;;;;;;5012577;28;19913;-71
2022/08/24 22:45:47;;;;;;;;;;;20.40;63.90;;;;;;5013290;28;20230;-71
2022/08/24 22:48:13;;;;;;;;;;;20.30;64.10;;;;;;5012546;28;19910;-70
2022/08/24 22:50:41;;;;;;;;;;;20.30;64.70;;;;;;5013614;28;20349;-71
2022/08/24 22:53:07;;;;;;;;;;;20.20;65.10;;;;;;5012005;28;19920;-71
2022/08/24 22:55:33;;;;;;;;;;;20.20;65.60;;;;;;5013281;28;19917;-71
2022/08/24 22:57:59;;;;;;;;;;;20.10;66.20;;;;;;5013121;28;20429;-71
2022/08/24 23:00:25;;;;;;;;;;;20.10;66.40;;;;;;5011698;28;20182;-71
2022/08/24 23:02:51;;;;;;;;;;;20.00;67.10;;;;;;5012806;28;19932;-71
2022/08/24 23:05:17;;;;;;;;;;;20.00;67.60;;;;;;5012294;28;19913;-71
2022/08/24 23:07:43;;;;;;;;;;;19.90;68.70;;;;;;5013140;28;19924;-71
2022/08/24 23:10:09;;;;;;;;;;;19.90;68.80;;;;;;5012774;28;20344;-71
2022/08/24 23:12:35;;;;;;;;;;;19.80;69.30;;;;;;5013154;28;20305;-71
2022/08/24 23:15:01;;;;;;;;;;;19.80;69.70;;;;;;5013070;28;19914;-70
2022/08/24 23:17:27;;;;;;;;;;;19.80;70.10;;;;;;5011981;28;19917;-70
2022/08/24 23:19:59;;;;;;;;;;;19.80;70.70;;;;;;5012589;28;19913;-71
2022/08/24 23:22:27;;;;;;;;;;;19.90;71.20;;;;;;5012027;28;19918;-71
2022/08/24 23:24:53;;;;;;;;;;;19.90;71.60;;;;;;5012842;28;19917;-71
2022/08/24 23:27:19;;;;;;;;;;;19.80;72.20;;;;;;5011791;28;19914;-70
2022/08/24 23:29:46;;;;;;;;;;;19.80;73.30;;;;;;5012528;28;19920;-71
2022/08/24 23:32:13;;;;;;;;;;;19.80;74.40;;;;;;5012484;28;19928;-71
2022/08/24 23:34:39;;;;;;;;;;;19.80;74.40;;;;;;5012648;28;19914;-71
2022/08/24 23:37:05;;;;;;;;;;;19.80;75.20;;;;;;5013010;28;20223;-71
2022/08/24 23:39:31;;;;;;;;;;;19.70;75.70;;;;;;5012084;28;19920;-71
2022/08/24 23:41:57;;;;;;;;;;;19.80;76.40;;;;;;5011824;28;20350;-70
2022/08/24 23:44:24;;;;;;;;;;;19.80;76.10;;;;;;5012047;28;19925;-70
2022/08/24 23:46:50;;;;;;;;;;;19.80;76.40;;;;;;5012460;28;19914;-71
2022/08/24 23:49:18;;;;;;;;;;;19.80;76.50;;;;;;5015241;28;19914;-71
2022/08/24 23:51:44;;;;;;;;;;;19.80;77.60;;;;;;5016854;28;19913;-70
2022/08/24 23:54:11;;;;;;;;;;;19.70;78.20;;;;;;5015551;28;19913;-71
2022/08/24 23:56:38;;;;;;;;;;;19.60;78.90;;;;;;5016750;28;19910;-70
2022/08/24 23:59:06;;;;;;;;;;;19.60;79.60;;;;;;5016655;28;19920;-71
